Time;durP1;ratioP1;P1;durP2;ratioP2;P2;SDS_P1;SDS_P2;PMS_P1;PMS_P2;Temp;Humidity;BMP_temperature;BMP_pressure;BME280_temperature;BME280_humidity;BME280_pressure;Samples;Min_cycle;Max_cycle;Signal;HPM_P1;HPM_P2
2022/01/13 00:02:25;;;;;;;52.33;16.20;;;2.20;1.00;;;;;;4915817;29;20209;-88
2022/01/13 00:04:52;;;;;;;51.17;17.57;;;2.20;1.00;;;;;;4916299;29;20260;-88
2022/01/13 00:07:20;;;;;;;54.60;17.83;;;2.20;1.00;;;;;;4916354;29;20260;-87
2022/01/13 00:09:47;;;;;;;70.17;22.40;;;2.30;1.00;;;;;;4916477;29;20264;-88
2022/01/13 00:12:17;;;;;;;64.53;22.70;;;2.30;1.00;;;;;;4915973;29;20284;-88
2022/01/13 00:15:06;;;;;;;48.83;19.93;;;2.30;1.00;;;;;;4915997;29;20194;-88
2022/01/13 00:17:45;;;;;;;47.53;16.13;;;2.30;1.00;;;;;;4916646;29;20649;-88
2022/01/13 00:25:36;;;;;;;45.03;15.93;;;2.30;1.00;;;;;;4915259;29;20257;-88
2022/01/13 00:28:12;;;;;;;49.83;17.33;;;2.30;1.00;;;;;;4916202;29;20206;-88
2022/01/13 00:30:39;;;;;;;43.47;15.70;;;2.30;1.00;;;;;;4916039;29;20247;-88
2022/01/13 00:33:08;;;;;;;49.53;16.60;;;2.30;1.00;;;;;;4916290;29;20623;-88
2022/01/13 00:35:35;;;;;;;44.37;17.20;;;2.30;1.00;;;;;;4916475;29;20200;-88
2022/01/13 00:38:03;;;;;;;45.97;17.03;;;2.30;1.00;;;;;;4915871;29;20267;-88
2022/01/13 00:40:30;;;;;;;39.93;13.97;;;2.40;1.00;;;;;;4916011;29;20253;-88
2022/01/13 00:42:57;;;;;;;40.67;16.07;;;2.40;1.00;;;;;;4918039;29;20206;-88
2022/01/13 00:45:24;;;;;;;50.80;16.93;;;2.30;1.00;;;;;;4919666;29;20273;-88
2022/01/13 00:47:51;;;;;;;44.23;15.73;;;2.40;1.00;;;;;;4919140;29;20257;-88
2022/01/13 00:50:18;;;;;;;51.53;17.13;;;2.30;1.00;;;;;;4919313;29;20665;-88
2022/01/13 00:52:45;;;;;;;48.63;16.97;;;2.40;1.00;;;;;;4919603;29;20622;-88
2022/01/13 00:55:20;;;;;;;57.40;16.93;;;2.40;1.00;;;;;;4919580;29;20210;-88
2022/01/13 00:57:47;;;;;;;44.83;16.90;;;2.40;1.00;;;;;;4919051;29;20253;-88
2022/01/13 01:00:15;;;;;;;40.73;16.03;;;2.40;1.00;;;;;;4919337;29;20199;-88
2022/01/13 01:02:42;;;;;;;59.90;16.57;;;2.40;1.00;;;;;;4919426;29;20205;-88
2022/01/13 01:05:10;;;;;;;55.87;18.20;;;2.40;1.00;;;;;;4919573;29;20214;-87
2022/01/13 01:07:38;;;;;;;56.10;18.40;;;2.40;1.00;;;;;;4918929;29;20412;-88
2022/01/13 01:10:06;;;;;;;58.10;17.67;;;2.40;1.00;;;;;;4918982;29;20214;-88
2022/01/13 01:12:37;;;;;;;54.63;17.97;;;2.40;1.00;;;;;;4919031;29;20228;-88
2022/01/13 01:15:06;;;;;;;53.30;17.87;;;2.40;1.00;;;;;;4919520;29;20202;-88
2022/01/13 01:17:35;;;;;;;58.30;19.10;;;2.50;1.00;;;;;;4919069;29;20257;-88
2022/01/13 01:20:07;;;;;;;52.00;18.07;;;2.50;1.00;;;;;;4918864;29;20210;-87
2022/01/13 01:22:43;;;;;;;56.60;17.97;;;2.40;1.00;;;;;;4919104;29;20633;-88
2022/01/13 01:25:30;;;;;;;63.27;20.53;;;2.50;1.00;;;;;;4919418;29;20310;-88
2022/01/13 01:28:00;;;;;;;57.53;19.47;;;2.50;1.00;;;;;;4918813;29;20202;-87
2022/01/13 01:30:33;;;;;;;62.33;17.57;;;2.50;1.00;;;;;;4918938;29;20201;-88
2022/01/13 01:33:00;;;;;;;57.23;19.63;;;2.50;1.00;;;;;;4919169;29;20294;-88
2022/01/13 01:35:27;;;;;;;65.57;18.80;;;2.50;1.00;;;;;;4918322;29;20725;-87
2022/01/13 01:37:55;;;;;;;60.33;19.70;;;2.50;1.00;;;;;;4918527;29;20205;-88
2022/01/13 01:40:23;;;;;;;63.53;19.23;;;2.50;1.00;;;;;;4918903;29;20258;-88
2022/01/13 01:42:50;;;;;;;59.10;18.13;;;2.60;1.00;;;;;;4918790;29;20201;-88
2022/01/13 01:45:19;;;;;;;70.67;18.97;;;2.60;1.00;;;;;;4918412;29;20269;-87
2022/01/13 01:47:51;;;;;;;63.73;18.90;;;2.60;1.00;;;;;;4918755;29;20213;-88
2022/01/13 01:50:22;;;;;;;64.63;19.43;;;2.60;1.00;;;;;;4918645;29;20257;-88
2022/01/13 01:52:52;;;;;;;62.03;18.67;;;2.60;1.00;;;;;;4918693;29;20193;-88
2022/01/13 01:55:21;;;;;;;73.03;20.57;;;2.60;1.00;;;;;;4917801;29;20194;-88
2022/01/13 01:57:51;;;;;;;71.20;22.00;;;2.60;1.00;;;;;;4918563;29;20228;-88
2022/01/13 02:00:22;;;;;;;68.73;20.83;;;2.60;1.00;;;;;;4918795;29;20251;-88
2022/01/13 02:02:49;;;;;;;68.37;18.20;;;2.60;1.00;;;;;;4918322;29;20273;-87
2022/01/13 02:05:16;;;;;;;72.87;20.30;;;2.70;1.00;;;;;;4918208;29;20229;-87
2022/01/13 02:07:43;;;;;;;62.73;17.43;;;2.70;1.00;;;;;;4918535;29;20252;-88
2022/01/13 02:10:11;;;;;;;80.50;18.33;;;2.70;1.00;;;;;;4918089;29;20206;-87
2022/01/13 02:12:42;;;;;;;72.17;17.93;;;2.70;1.00;;;;;;4917704;29;20269;-88
2022/01/13 02:15:29;;;;;;;59.50;15.97;;;2.70;1.00;;;;;;4918359;29;20275;-88
2022/01/13 02:17:59;;;;;;;75.20;17.20;;;2.70;1.00;;;;;;4918306;29;20265;-87
2022/01/13 02:20:45;;;;;;;73.23;18.13;;;2.70;1.00;;;;;;4918156;29;20195;-88
2022/01/13 02:23:12;;;;;;;83.10;17.53;;;2.70;1.00;;;;;;4918173;29;20261;-88
2022/01/13 02:25:39;;;;;;;88.33;18.97;;;2.70;1.00;;;;;;4918020;29;20549;-87
2022/01/13 02:28:06;;;;;;;84.77;20.87;;;2.70;1.00;;;;;;4918001;29;20205;-87
2022/01/13 02:30:33;;;;;;;70.57;18.33;;;2.70;1.00;;;;;;4918056;29;20606;-87
2022/01/13 02:33:00;;;;;;;67.20;16.17;;;2.70;1.00;;;;;;4917700;29;20602;-87
2022/01/13 02:35:36;;;;;;;60.33;17.30;;;2.70;1.00;;;;;;4917507;29;20626;-87
2022/01/13 02:38:08;;;;;;;77.33;19.73;;;2.80;1.00;;;;;;4917967;29;20243;-87
2022/01/13 02:40:35;;;;;;;69.43;18.23;;;2.80;1.00;;;;;;4917241;29;20210;-87
2022/01/13 02:43:02;;;;;;;69.30;17.97;;;2.80;1.00;;;;;;4917300;29;20200;-88
2022/01/13 02:45:33;;;;;;;68.40;19.00;;;2.80;1.00;;;;;;4917441;29;20228;-87
2022/01/13 02:48:25;;;;;;;69.50;17.40;;;2.80;1.00;;;;;;4917531;29;20202;-88
2022/01/13 02:50:55;;;;;;;66.40;16.83;;;2.80;1.00;;;;;;4917260;29;20203;-88
2022/01/13 02:53:22;;;;;;;77.30;18.27;;;2.90;1.00;;;;;;4917237;29;20201;-88
2022/01/13 02:55:50;;;;;;;76.90;17.67;;;2.80;1.00;;;;;;4917600;29;20206;-88
2022/01/13 02:58:17;;;;;;;80.33;19.70;;;2.80;1.00;;;;;;4917803;29;20213;-87
2022/01/13 03:00:45;;;;;;;71.27;16.47;;;2.90;1.00;;;;;;4916795;29;20272;-88
2022/01/13 03:03:13;;;;;;;70.50;18.07;;;2.90;1.00;;;;;;4917151;29;20260;-88
2022/01/13 03:05:41;;;;;;;72.70;18.73;;;2.90;1.00;;;;;;4916324;29;20226;-88
2022/01/13 03:08:10;;;;;;;81.57;20.87;;;2.90;1.00;;;;;;4916890;29;20210;-87
2022/01/13 03:10:38;;;;;;;70.03;18.83;;;2.90;1.00;;;;;;4916967;29;20229;-87
2022/01/13 03:13:06;;;;;;;67.33;15.83;;;2.90;1.00;;;;;;4917077;29;20265;-87
2022/01/13 03:15:33;;;;;;;60.67;15.33;;;2.90;1.00;;;;;;4916715;29;20207;-87
2022/01/13 03:18:00;;;;;;;73.90;17.73;;;3.00;1.00;;;;;;4916814;29;20202;-88
2022/01/13 03:20:27;;;;;;;57.60;15.45;;;3.00;1.00;;;;;;4916764;29;20656;-87
2022/01/13 03:22:54;;;;;;;61.17;15.43;;;3.00;1.00;;;;;;4917035;29;20205;-87
2022/01/13 03:25:24;;;;;;;51.47;15.90;;;3.00;1.00;;;;;;4916498;29;20613;-88
2022/01/13 03:27:57;;;;;;;56.77;15.53;;;3.00;1.00;;;;;;4916583;29;20193;-87
2022/01/13 03:30:24;;;;;;;64.27;16.43;;;3.00;1.00;;;;;;4916975;29;20190;-87
2022/01/13 03:32:51;;;;;;;65.43;17.03;;;3.00;1.00;;;;;;4916471;29;20201;-87
2022/01/13 03:35:18;;;;;;;49.73;14.30;;;3.00;1.00;;;;;;4916665;29;20241;-88
2022/01/13 03:37:45;;;;;;;61.50;14.40;;;3.00;1.00;;;;;;4916804;29;20217;-88
2022/01/13 03:40:13;;;;;;;59.40;14.30;;;3.00;1.00;;;;;;4916785;29;20217;-88
2022/01/13 03:42:42;;;;;;;60.20;15.00;;;3.00;1.00;;;;;;4916308;29;20673;-87
2022/01/13 03:45:10;;;;;;;60.07;13.73;;;3.00;1.00;;;;;;4916602;29;20724;-87
2022/01/13 03:47:37;;;;;;;81.73;16.50;;;3.00;1.00;;;;;;4916203;29;20593;-87
2022/01/13 03:50:05;;;;;;;70.43;18.23;;;3.10;1.00;;;;;;4916280;29;20237;-88
2022/01/13 03:53:11;;;;;;;63.93;15.40;;;3.10;1.00;;;;;;4916340;29;20201;-87
2022/01/13 03:56:30;;;;;;;58.07;15.57;;;3.10;1.00;;;;;;4915333;29;20201;-88
2022/01/13 03:59:38;;;;;;;63.97;16.43;;;3.10;1.00;;;;;;4916669;29;20201;-87
2022/01/13 04:02:08;;;;;;;60.80;16.20;;;3.10;1.00;;;;;;4916463;29;20198;-87
2022/01/13 04:04:36;;;;;;;67.70;16.47;;;3.10;1.00;;;;;;4916165;29;20197;-87
2022/01/13 04:07:18;;;;;;;69.23;16.73;;;3.00;1.00;;;;;;4916354;29;20224;-87
2022/01/13 04:10:27;;;;;;;71.87;16.30;;;3.10;1.00;;;;;;4916098;29;20193;-88
2022/01/13 04:12:56;;;;;;;49.23;13.50;;;3.10;1.00;;;;;;4915764;29;20319;-87
2022/01/13 04:15:28;;;;;;;63.30;16.47;;;3.10;1.00;;;;;;4915729;29;20193;-88
2022/01/13 04:17:56;;;;;;;79.70;18.47;;;3.10;1.00;;;;;;4918497;29;20648;-87
2022/01/13 04:20:23;;;;;;;76.07;15.87;;;3.10;1.00;;;;;;4920293;29;20205;-88
2022/01/13 04:22:52;;;;;;;86.90;18.20;;;3.10;1.00;;;;;;4920164;29;20719;-88
2022/01/13 04:25:22;;;;;;;43.90;14.27;;;3.10;1.00;;;;;;4920041;29;20229;-88
2022/01/13 04:27:49;;;;;;;56.70;14.20;;;3.10;1.00;;;;;;4920398;29;20213;-87
2022/01/13 04:30:34;;;;;;;64.57;17.13;;;3.10;1.00;;;;;;4919737;29;20265;-87
2022/01/13 04:33:03;;;;;;;72.83;16.53;;;3.10;1.00;;;;;;4919429;29;20192;-88
2022/01/13 04:35:31;;;;;;;85.73;18.27;;;3.10;1.00;;;;;;4919570;29;20209;-87
2022/01/13 04:37:58;;;;;;;81.67;18.00;;;3.10;1.00;;;;;;4919956;29;20252;-87
2022/01/13 04:40:25;;;;;;;97.50;18.73;;;3.10;1.00;;;;;;4919955;29;20239;-88
2022/01/13 04:42:55;;;;;;;61.03;15.27;;;3.10;1.00;;;;;;4919835;29;20201;-87
2022/01/13 04:45:24;;;;;;;70.87;17.37;;;3.10;1.00;;;;;;4920379;29;20201;-88
2022/01/13 04:47:53;;;;;;;58.07;14.53;;;3.10;1.00;;;;;;4919842;29;20280;-87
2022/01/13 04:50:23;;;;;;;97.87;19.07;;;3.10;1.00;;;;;;4920068;29;20204;-88
2022/01/13 04:52:50;;;;;;;83.90;19.93;;;3.10;1.00;;;;;;4919642;29;20288;-87
2022/01/13 04:55:23;;;;;;;83.77;19.13;;;3.10;1.00;;;;;;4919613;29;20209;-87
2022/01/13 04:57:51;;;;;;;93.20;19.07;;;3.10;1.00;;;;;;4919595;29;20723;-88
2022/01/13 05:00:18;;;;;;;102.20;22.60;;;3.10;1.00;;;;;;4918997;29;20624;-87
2022/01/13 05:02:45;;;;;;;106.50;20.83;;;3.10;1.00;;;;;;4919493;29;20198;-88
2022/01/13 05:05:13;;;;;;;94.17;21.30;;;3.10;1.00;;;;;;4919147;29;20607;-88
2022/01/13 05:07:41;;;;;;;104.17;19.90;;;3.10;1.00;;;;;;4919012;29;20522;-87
2022/01/13 05:10:09;;;;;;;75.90;17.63;;;3.20;1.00;;;;;;4919307;29;20198;-88
2022/01/13 05:12:41;;;;;;;87.40;19.60;;;3.20;1.00;;;;;;4918986;29;20229;-88
2022/01/13 05:15:12;;;;;;;108.00;20.60;;;3.20;1.00;;;;;;4919335;29;20186;-87
2022/01/13 05:20:46;;;;;;;95.13;18.23;;;3.20;1.00;;;;;;4918925;29;20192;-87
2022/01/13 05:23:15;;;;;;;85.37;20.03;;;3.20;1.00;;;;;;4919367;29;20297;-87
2022/01/13 05:25:43;;;;;;;77.37;18.57;;;3.20;1.00;;;;;;4918717;29;20607;-86
2022/01/13 05:28:11;;;;;;;96.03;19.97;;;3.20;3.70;;;;;;4917485;29;20654;-87
2022/01/13 05:30:38;;;;;;;86.27;19.40;;;3.20;7.10;;;;;;4918689;29;20261;-87
2022/01/13 05:33:05;;;;;;;93.33;19.90;;;3.30;10.30;;;;;;4918548;29;20248;-87
2022/01/13 05:35:32;;;;;;;112.10;28.43;;;3.20;10.90;;;;;;4917814;29;20656;-87
2022/01/13 05:37:59;;;;;;;97.23;21.80;;;3.30;25.00;;;;;;4918677;29;20290;-87
2022/01/13 05:40:28;;;;;;;120.10;30.10;;;3.30;31.50;;;;;;4917609;29;20261;-86
2022/01/13 05:42:55;;;;;;;109.47;27.37;;;3.30;30.00;;;;;;4918946;29;20260;-86
2022/01/13 05:45:28;;;;;;;118.07;27.67;;;3.30;29.40;;;;;;4918694;29;20686;-86
2022/01/13 05:47:55;;;;;;;90.73;21.17;;;3.30;35.50;;;;;;4919354;29;20225;-88
2022/01/13 05:50:22;;;;;;;98.50;20.70;;;3.30;36.00;;;;;;4918578;29;20201;-87
2022/01/13 05:52:49;;;;;;;96.37;20.43;;;3.40;46.50;;;;;;4918806;29;20205;-87
2022/01/13 05:55:18;;;;;;;85.23;20.80;;;3.40;41.10;;;;;;4918801;29;20224;-89
2022/01/13 05:57:48;;;;;;;81.23;19.30;;;3.40;45.50;;;;;;4918514;29;20246;-89
2022/01/13 06:00:17;;;;;;;110.30;23.53;;;3.40;59.70;;;;;;4918851;29;20204;-88
2022/01/13 06:02:45;;;;;;;103.77;26.37;;;3.40;69.20;;;;;;4918358;29;20210;-88
2022/01/13 06:05:12;;;;;;;108.57;24.07;;;3.40;63.70;;;;;;4917929;29;20277;-87
2022/01/13 06:07:39;;;;;;;103.50;21.87;;;3.40;60.60;;;;;;4918535;29;20221;-88
2022/01/13 06:10:09;;;;;;;95.80;21.10;;;3.40;62.40;;;;;;4918697;29;20279;-86
2022/01/13 06:12:37;;;;;;;80.20;19.17;;;3.40;66.30;;;;;;4918272;29;20771;-87
2022/01/13 06:15:08;;;;;;;100.07;22.40;;;3.40;68.20;;;;;;4916895;29;20237;-88
2022/01/13 06:17:35;;;;;;;88.47;23.40;;;3.50;76.80;;;;;;4918333;29;20268;-88
2022/01/13 06:20:04;;;;;;;83.50;23.73;;;3.50;73.60;;;;;;4917549;29;20213;-88
2022/01/13 06:22:32;;;;;;;77.20;24.13;;;3.50;83.20;;;;;;4917938;29;20202;-88
2022/01/13 06:24:59;;;;;;;77.33;18.27;;;3.50;85.80;;;;;;4917526;29;20198;-88
2022/01/13 06:27:26;;;;;;;68.67;17.53;;;3.50;91.80;;;;;;4917997;29;20217;-86
2022/01/13 06:29:53;;;;;;;63.37;17.20;;;3.50;89.60;;;;;;4918234;29;20551;-88
2022/01/13 06:32:22;;;;;;;68.83;18.97;;;3.50;95.20;;;;;;4917899;29;20276;-87
2022/01/13 06:34:50;;;;;;;65.07;16.57;;;3.50;96.10;;;;;;4917997;29;20606;-87
2022/01/13 06:37:18;;;;;;;74.67;20.63;;;3.50;99.90;;;;;;4917985;29;20209;-87
2022/01/13 06:39:45;;;;;;;84.63;19.27;;;3.50;99.90;;;;;;4917394;29;20539;-87
2022/01/13 06:42:13;;;;;;;77.77;20.80;;;3.60;99.90;;;;;;4917616;29;20197;-87
2022/01/13 06:44:41;;;;;;;84.97;19.80;;;3.60;98.00;;;;;;4917525;29;20195;-87
2022/01/13 06:47:08;;;;;;;67.17;16.40;;;3.60;96.90;;;;;;4917824;29;20225;-88
2022/01/13 06:49:38;;;;;;;70.67;16.63;;;3.60;99.90;;;;;;4917829;29;20202;-86
2022/01/13 06:52:06;;;;;;;90.13;19.47;;;3.60;99.90;;;;;;4917787;29;20215;-87
2022/01/13 06:54:33;;;;;;;102.43;18.70;;;3.60;99.90;;;;;;4917311;29;20210;-87
2022/01/13 06:57:00;;;;;;;78.40;20.77;;;3.60;99.90;;;;;;4917682;29;20199;-89
2022/01/13 06:59:27;;;;;;;71.37;17.60;;;3.60;99.90;;;;;;4917541;29;20255;-87
2022/01/13 07:01:56;;;;;;;72.80;15.87;;;3.60;98.20;;;;;;4917749;29;20249;-87
2022/01/13 07:04:23;;;;;;;79.00;18.17;;;3.60;99.90;;;;;;4917847;29;20232;-87
2022/01/13 07:06:51;;;;;;;71.50;17.60;;;3.60;99.90;;;;;;4917290;29;22132;-87
2022/01/13 07:09:19;;;;;;;69.20;19.17;;;3.60;99.90;;;;;;4917110;29;20202;-88
2022/01/13 07:11:47;;;;;;;73.87;18.20;;;3.60;99.90;;;;;;4917106;29;20227;-86
2022/01/13 07:14:14;;;;;;;59.85;16.90;;;3.60;99.90;;;;;;4917578;29;20213;-88
2022/01/13 07:16:42;;;;;;;68.33;16.30;;;3.60;99.90;;;;;;4917046;29;20212;-88
2022/01/13 07:19:11;;;;;;;58.90;16.50;;;3.60;99.90;;;;;;4917013;29;20193;-88
2022/01/13 07:21:40;;;;;;;53.60;14.77;;;3.60;99.90;;;;;;4917166;29;20264;-87
2022/01/13 07:24:08;;;;;;;73.67;18.57;;;3.60;99.90;;;;;;4916795;29;20660;-87
2022/01/13 07:26:35;;;;;;;78.40;24.60;;;3.60;99.90;;;;;;4917278;29;20212;-87
2022/01/13 07:29:03;;;;;;;61.83;18.87;;;3.70;99.90;;;;;;4916228;29;20271;-86
2022/01/13 07:31:30;;;;;;;64.03;16.77;;;3.70;99.90;;;;;;4917202;29;20261;-86
2022/01/13 07:33:57;;;;;;;78.60;17.57;;;3.70;99.90;;;;;;4917172;29;20201;-87
2022/01/13 07:36:25;;;;;;;59.20;16.60;;;3.70;99.90;;;;;;4917090;29;20201;-87
2022/01/13 07:38:52;;;;;;;69.83;16.83;;;3.70;99.90;;;;;;4916227;29;20664;-88
2022/01/13 07:41:21;;;;;;;53.73;17.37;;;3.70;99.90;;;;;;4916787;29;20207;-88
2022/01/13 07:43:53;;;;;;;65.83;18.37;;;3.70;99.90;;;;;;4916922;29;20259;-87
2022/01/13 07:46:20;;;;;;;48.77;15.27;;;3.70;99.90;;;;;;4917193;29;20257;-87
2022/01/13 07:48:47;;;;;;;60.40;16.57;;;3.80;99.90;;;;;;4916258;29;20227;-87
2022/01/13 07:51:14;;;;;;;62.45;16.10;;;3.80;99.90;;;;;;4916320;29;20256;-88
2022/01/13 07:53:42;;;;;;;60.20;16.03;;;3.70;99.90;;;;;;4916566;29;20248;-88
2022/01/13 07:56:09;;;;;;;62.97;17.87;;;3.80;99.90;;;;;;4916922;29;20313;-87
2022/01/13 07:58:38;;;;;;;66.97;18.17;;;3.80;99.90;;;;;;4916549;29;20204;-88
2022/01/13 08:01:05;;;;;;;62.97;18.10;;;3.80;99.90;;;;;;4916968;29;20209;-87
2022/01/13 08:03:32;;;;;;;63.20;17.30;;;3.80;99.90;;;;;;4916465;29;20262;-88
2022/01/13 08:06:00;;;;;;;59.60;17.80;;;3.80;99.90;;;;;;4916622;29;20201;-88
2022/01/13 08:08:27;;;;;;;70.27;17.67;;;3.90;99.90;;;;;;4916366;29;20215;-87
2022/01/13 08:10:54;;;;;;;65.37;16.47;;;3.90;99.90;;;;;;4916270;29;20637;-87
2022/01/13 08:13:21;;;;;;;79.53;23.23;;;3.90;99.90;;;;;;4916610;29;20227;-87
2022/01/13 08:15:54;;;;;;;102.73;27.23;;;3.90;99.90;;;;;;4916176;29;20659;-88
2022/01/13 08:21:07;;;;;;;95.33;28.17;;;4.00;99.90;;;;;;4916297;29;20318;-87
2022/01/13 08:23:34;;;;;;;88.07;24.33;;;4.00;99.90;;;;;;4916690;29;20205;-87
2022/01/13 08:26:01;;;;;;;81.10;23.90;;;3.90;99.90;;;;;;4916155;29;20262;-87
2022/01/13 08:28:28;;;;;;;93.67;24.20;;;4.00;99.90;;;;;;4915980;29;20272;-87
2022/01/13 08:30:57;;;;;;;109.50;28.80;;;4.00;99.90;;;;;;4915999;29;20719;-87
2022/01/13 08:33:24;;;;;;;93.50;26.73;;;4.00;99.90;;;;;;4915974;29;20610;-87
2022/01/13 08:35:52;;;;;;;58.47;17.77;;;4.00;99.90;;;;;;4915793;29;20196;-87
2022/01/13 08:38:19;;;;;;;70.20;19.10;;;4.00;99.90;;;;;;4916006;29;20204;-87
2022/01/13 08:40:49;;;;;;;94.00;27.43;;;4.10;99.90;;;;;;4916153;29;20308;-87
2022/01/13 08:43:17;;;;;;;108.70;31.47;;;4.10;99.90;;;;;;4916103;29;20200;-87
2022/01/13 08:45:44;;;;;;;76.70;20.93;;;4.10;99.90;;;;;;4915804;29;20743;-87
2022/01/13 08:48:12;;;;;;;66.40;21.60;;;4.10;99.90;;;;;;4916092;29;20216;-88
2022/01/13 08:50:40;;;;;;;62.07;18.63;;;4.20;99.90;;;;;;4915945;29;20647;-89
2022/01/13 08:53:07;;;;;;;73.10;20.73;;;4.20;99.90;;;;;;4915993;29;20203;-89
2022/01/13 08:55:34;;;;;;;84.53;22.57;;;4.20;99.90;;;;;;4916374;29;20273;-88
2022/01/13 08:58:01;;;;;;;69.70;19.83;;;4.20;99.90;;;;;;4916183;29;20622;-88
2022/01/13 09:00:28;;;;;;;126.53;31.30;;;4.30;99.90;;;;;;4915849;29;20260;-88
2022/01/13 09:02:55;;;;;;;67.77;18.77;;;4.30;99.90;;;;;;4916640;29;20248;-89
2022/01/13 09:05:24;;;;;;;73.93;19.70;;;4.30;99.90;;;;;;4919056;29;20257;-88
2022/01/13 09:07:51;;;;;;;81.83;22.50;;;4.40;99.90;;;;;;4919475;29;20224;-88
2022/01/13 09:10:18;;;;;;;62.33;19.77;;;4.30;99.90;;;;;;4919537;29;20266;-88
2022/01/13 09:12:45;;;;;;;76.27;19.80;;;4.30;99.90;;;;;;4919074;29;20312;-89
2022/01/13 09:15:18;;;;;;;80.90;26.57;;;4.30;99.90;;;;;;4919446;29;20233;-87
2022/01/13 09:17:51;;;;;;;63.27;21.63;;;4.30;99.90;;;;;;4919417;29;20228;-88
2022/01/13 09:20:18;;;;;;;70.50;23.87;;;4.40;99.90;;;;;;4919105;29;20194;-88
2022/01/13 09:22:47;;;;;;;67.97;21.67;;;4.40;99.90;;;;;;4919077;29;20645;-88
2022/01/13 09:25:14;;;;;;;76.27;20.57;;;4.40;99.90;;;;;;4919070;29;20212;-88
2022/01/13 09:27:42;;;;;;;69.80;21.93;;;4.40;99.90;;;;;;4919161;29;20253;-88
2022/01/13 09:30:13;;;;;;;77.03;24.17;;;4.40;99.90;;;;;;4919105;29;20197;-88
2022/01/13 09:32:41;;;;;;;66.50;20.55;;;4.50;99.90;;;;;;4919127;29;20257;-87
2022/01/13 09:35:09;;;;;;;62.27;19.50;;;4.50;99.90;;;;;;4918871;29;20208;-88
2022/01/13 09:37:36;;;;;;;64.57;19.50;;;4.50;99.90;;;;;;4919308;29;20198;-88
2022/01/13 09:40:07;;;;;;;68.87;18.97;;;4.50;99.90;;;;;;4918852;29;20253;-88
2022/01/13 09:42:36;;;;;;;62.13;17.70;;;4.50;99.90;;;;;;4919238;29;20594;-88
2022/01/13 09:45:05;;;;;;;78.97;24.83;;;4.50;99.90;;;;;;4919244;29;20177;-87
2022/01/13 09:47:32;;;;;;;68.30;20.10;;;4.50;99.90;;;;;;4919043;29;20672;-89
2022/01/13 09:50:01;;;;;;;61.87;17.93;;;4.50;99.90;;;;;;4918506;29;20193;-85
2022/01/13 09:52:28;;;;;;;55.83;15.97;;;4.50;99.90;;;;;;4917658;29;20197;-85
2022/01/13 09:54:56;;;;;;;77.37;22.77;;;4.50;99.90;;;;;;4918218;29;20201;-85
2022/01/13 09:57:24;;;;;;;77.13;22.83;;;4.50;99.90;;;;;;4917987;29;20235;-85
2022/01/13 09:59:54;;;;;;;76.73;22.17;;;4.50;99.90;;;;;;4918196;29;20212;-86
2022/01/13 10:02:21;;;;;;;71.07;22.13;;;4.50;99.90;;;;;;4917686;29;20277;-85
2022/01/13 10:04:50;;;;;;;109.03;34.97;;;4.60;99.90;;;;;;4918243;29;20204;-86
2022/01/13 10:07:31;;;;;;;111.23;34.37;;;4.60;99.90;;;;;;4917552;29;20621;-86
2022/01/13 10:09:59;;;;;;;111.87;36.10;;;4.60;99.90;;;;;;4918088;29;20538;-85
2022/01/13 10:12:35;;;;;;;177.53;51.83;;;4.60;99.90;;;;;;4917344;29;20221;-86
2022/01/13 10:17:52;;;;;;;105.90;35.37;;;4.60;99.90;;;;;;4917937;29;20268;-86
2022/01/13 10:20:22;;;;;;;98.73;31.00;;;4.70;99.90;;;;;;4917509;29;25172;-86
2022/01/13 10:22:49;;;;;;;84.97;24.67;;;4.70;99.90;;;;;;4917539;29;20536;-86
2022/01/13 10:25:29;;;;;;;113.13;33.43;;;4.70;99.90;;;;;;4917337;29;20720;-85
2022/01/13 10:28:11;;;;;;;102.00;31.83;;;4.70;99.90;;;;;;4917901;29;20221;-85
2022/01/13 10:30:38;;;;;;;83.27;28.33;;;4.80;99.90;;;;;;4917746;29;20701;-86
2022/01/13 10:33:16;;;;;;;96.03;30.03;;;4.80;99.90;;;;;;4917983;29;20194;-86
2022/01/13 10:35:43;;;;;;;82.83;26.80;;;4.80;99.90;;;;;;4917920;29;20604;-85
2022/01/13 10:38:10;;;;;;;78.43;26.27;;;4.80;99.90;;;;;;4917212;29;20198;-86
2022/01/13 10:40:41;;;;;;;96.33;28.23;;;4.80;99.90;;;;;;4917458;29;20198;-86
2022/01/13 10:43:11;;;;;;;82.10;22.67;;;4.80;99.90;;;;;;4917666;29;20186;-85
2022/01/13 10:45:44;;;;;;;79.20;23.97;;;4.80;99.90;;;;;;4917137;29;20186;-86
2022/01/13 10:48:14;;;;;;;68.70;20.90;;;4.80;99.90;;;;;;4917339;29;20629;-86
2022/01/13 10:50:44;;;;;;;85.43;25.60;;;4.90;99.90;;;;;;4916712;29;20642;-84
2022/01/13 10:53:13;;;;;;;80.97;25.07;;;4.80;99.90;;;;;;4910391;29;20253;-83
2022/01/13 10:55:43;;;;;;;88.47;22.80;;;4.80;99.90;;;;;;4913707;29;20208;-84
2022/01/13 10:58:14;;;;;;;74.90;22.73;;;4.90;99.90;;;;;;4916404;29;20605;-84
2022/01/13 11:00:42;;;;;;;65.50;21.33;;;4.80;99.90;;;;;;4916034;29;20722;-84
2022/01/13 11:03:12;;;;;;;69.93;19.07;;;4.80;99.90;;;;;;4913898;29;20204;-83
2022/01/13 11:05:41;;;;;;;64.97;19.23;;;4.90;99.90;;;;;;4899192;29;20198;-85
2022/01/13 11:08:10;;;;;;;71.70;18.90;;;4.80;99.90;;;;;;4897523;29;20222;-85
2022/01/13 11:10:40;;;;;;;64.53;19.10;;;4.80;99.90;;;;;;4905526;29;20209;-84
2022/01/13 11:13:16;;;;;;;64.23;21.13;;;4.90;99.90;;;;;;4917257;29;20285;-84
2022/01/13 11:15:50;;;;;;;62.80;21.17;;;4.90;99.90;;;;;;4917329;29;20211;-84
2022/01/13 11:18:19;;;;;;;67.50;22.50;;;4.90;99.90;;;;;;4905138;29;20217;-85
2022/01/13 11:20:47;;;;;;;63.10;22.07;;;4.90;99.90;;;;;;4900694;29;20649;-85
2022/01/13 11:23:19;;;;;;;74.83;26.57;;;4.90;99.90;;;;;;4897046;29;20281;-84
2022/01/13 11:25:48;;;;;;;68.63;23.83;;;5.00;99.90;;;;;;4896762;29;20202;-84
2022/01/13 11:28:15;;;;;;;69.73;23.07;;;5.00;99.90;;;;;;4901469;29;20225;-85
2022/01/13 11:30:45;;;;;;;79.17;29.93;;;5.00;99.90;;;;;;4909780;29;20236;-85
2022/01/13 11:33:13;;;;;;;73.53;25.03;;;5.10;99.90;;;;;;4916847;29;20208;-85
2022/01/13 11:35:48;;;;;;;81.07;24.33;;;5.00;99.90;;;;;;4922084;29;20609;-86
2022/01/13 11:38:18;;;;;;;64.93;23.00;;;5.10;99.90;;;;;;4916728;29;20605;-85
2022/01/13 11:40:47;;;;;;;53.90;19.30;;;5.10;99.90;;;;;;4904168;29;20209;-85
2022/01/13 11:43:30;;;;;;;60.23;20.40;;;5.10;99.90;;;;;;4903888;29;20202;-85
2022/01/13 11:46:11;;;;;;;58.87;19.80;;;5.10;99.90;;;;;;4903617;29;20676;-85
2022/01/13 11:48:42;;;;;;;65.23;19.10;;;5.10;99.90;;;;;;4917765;29;20550;-85
2022/01/13 11:51:17;;;;;;;65.70;20.83;;;5.10;99.90;;;;;;4921503;29;20193;-85
2022/01/13 11:53:55;;;;;;;59.53;20.07;;;5.10;99.90;;;;;;4922097;29;20201;-86
2022/01/13 11:56:23;;;;;;;70.10;22.67;;;5.10;99.90;;;;;;4921861;29;20217;-85
2022/01/13 11:58:51;;;;;;;59.80;19.93;;;5.20;99.90;;;;;;4922228;29;20205;-85
2022/01/13 12:01:22;;;;;;;66.10;19.40;;;5.10;99.90;;;;;;4922258;29;20275;-84
2022/01/13 12:03:51;;;;;;;59.20;19.17;;;5.20;99.90;;;;;;4922319;29;20595;-84
2022/01/13 12:06:37;;;;;;;60.27;22.37;;;5.20;99.90;;;;;;4921490;29;20296;-85
2022/01/13 12:09:05;;;;;;;59.17;22.60;;;5.20;99.90;;;;;;4913145;29;20229;-85
2022/01/13 12:11:53;;;;;;;58.27;21.50;;;5.20;99.90;;;;;;4915479;29;20261;-85
2022/01/13 12:14:42;;;;;;;80.30;28.93;;;5.30;99.90;;;;;;4916314;29;20193;-84
2022/01/13 12:17:20;;;;;;;63.80;24.97;;;5.30;99.90;;;;;;4913127;29;20209;-85
2022/01/13 12:19:50;;;;;;;55.00;21.17;;;5.40;99.90;;;;;;4916218;29;20209;-85
2022/01/13 12:22:40;;;;;;;58.80;21.07;;;5.40;99.90;;;;;;4916194;29;20281;-85
2022/01/13 12:25:08;;;;;;;58.80;21.20;;;5.40;99.90;;;;;;4916259;29;20209;-85
2022/01/13 12:27:47;;;;;;;46.17;18.50;;;5.50;99.90;;;;;;4915342;29;20602;-84
2022/01/13 12:30:16;;;;;;;49.23;17.83;;;5.50;99.90;;;;;;4916275;29;20268;-84
2022/01/13 12:32:47;;;;;;;45.63;18.70;;;5.50;99.90;;;;;;4916474;29;20237;-85
2022/01/13 12:35:16;;;;;;;56.37;20.00;;;5.60;99.90;;;;;;4915577;29;20210;-84
2022/01/13 12:37:43;;;;;;;45.30;17.20;;;5.60;99.90;;;;;;4916643;29;20201;-84
2022/01/13 12:40:17;;;;;;;46.53;20.30;;;5.60;99.90;;;;;;4920200;29;20613;-84
2022/01/13 12:42:52;;;;;;;52.63;20.50;;;5.60;99.90;;;;;;4919828;29;20192;-84
2022/01/13 12:45:32;;;;;;;43.23;19.00;;;5.60;99.90;;;;;;4919559;29;20189;-84
2022/01/13 12:48:04;;;;;;;47.93;20.73;;;5.60;99.90;;;;;;4919490;29;20633;-85
2022/01/13 12:50:34;;;;;;;48.13;21.57;;;5.60;99.90;;;;;;4919893;29;20221;-84
2022/01/13 12:53:16;;;;;;;53.80;22.47;;;5.70;99.90;;;;;;4919899;29;20198;-85
2022/01/13 12:55:45;;;;;;;45.40;19.90;;;5.70;99.90;;;;;;4919284;29;20225;-85
2022/01/13 12:58:13;;;;;;;45.80;21.30;;;5.70;99.90;;;;;;4920464;29;20201;-85
2022/01/13 13:00:40;;;;;;;50.30;19.67;;;5.70;99.90;;;;;;4919764;29;20264;-85
2022/01/13 13:03:08;;;;;;;40.33;17.73;;;5.70;99.90;;;;;;4919023;29;20548;-85
2022/01/13 13:05:46;;;;;;;40.00;17.43;;;5.70;99.90;;;;;;4919485;29;20201;-84
2022/01/13 13:08:16;;;;;;;43.83;20.77;;;5.70;99.90;;;;;;4919850;29;20193;-85
2022/01/13 13:10:48;;;;;;;40.80;17.37;;;5.70;99.90;;;;;;4918751;29;20635;-84